sensor_id;sensor_type;location;lat;lon;timestamp;pressure;altitude;pressure_sealevel;temperature;humidity
76732;BME280;65656;51.130;13.658;2022-12-13T00:02:14;64038.69;;;-145.85;100.00
76732;BME280;65656;51.130;13.658;2022-12-13T00:04:43;64038.69;;;-145.85;100.00
76732;BME280;65656;51.130;13.658;2022-12-13T00:07:10;64038.69;;;-145.85;100.00
76732;BME280;65656;51.130;13.658;2022-12-13T00:09:37;64038.69;;;-145.85;100.00
76732;BME280;65656;51.130;13.658;2022-12-13T00:12:04;64038.69;;;-145.85;100.00
76732;BME280;65656;51.130;13.658;2022-12-13T00:14:32;64038.69;;;-145.85;100.00
76732;BME280;65656;51.130;13.658;2022-12-13T00:16:59;64038.69;;;-145.85;100.00
76732;BME280;65656;51.130;13.658;2022-12-13T00:19:26;64038.69;;;-145.85;100.00
76732;BME280;65656;51.130;13.658;2022-12-13T00:21:54;64038.69;;;-145.85;100.00
76732;BME280;65656;51.130;13.658;2022-12-13T00:24:21;64038.69;;;-145.85;100.00
76732;BME280;65656;51.130;13.658;2022-12-13T00:26:48;64038.69;;;-145.85;100.00
76732;BME280;65656;51.130;13.658;2022-12-13T00:29:16;64038.69;;;-145.85;100.00
76732;BME280;65656;51.130;13.658;2022-12-13T00:31:43;64038.69;;;-145.85;100.00
76732;BME280;65656;51.130;13.658;2022-12-13T00:34:27;64038.69;;;-145.85;100.00
76732;BME280;65656;51.130;13.658;2022-12-13T00:36:56;64038.69;;;-145.85;100.00
76732;BME280;65656;51.130;13.658;2022-12-13T00:39:23;64038.69;;;-145.85;100.00
76732;BME280;65656;51.130;13.658;2022-12-13T00:41:50;64038.69;;;-145.85;100.00
76732;BME280;65656;51.130;13.658;2022-12-13T00:44:17;64038.69;;;-145.85;100.00
76732;BME280;65656;51.130;13.658;2022-12-13T00:46:44;64038.69;;;-145.85;100.00
76732;BME280;65656;51.130;13.658;2022-12-13T00:49:12;64038.69;;;-145.85;100.00
76732;BME280;65656;51.130;13.658;2022-12-13T00:51:39;64038.69;;;-145.85;100.00
76732;BME280;65656;51.130;13.658;2022-12-13T00:54:09;64038.69;;;-145.85;100.00
76732;BME280;65656;51.130;13.658;2022-12-13T00:56:36;64038.69;;;-145.85;100.00
76732;BME280;65656;51.130;13.658;2022-12-13T00:59:04;64038.69;;;-145.85;100.00
76732;BME280;65656;51.130;13.658;2022-12-13T01:01:32;64038.69;;;-145.85;100.00
76732;BME280;65656;51.130;13.658;2022-12-13T01:04:01;64038.69;;;-145.85;100.00
76732;BME280;65656;51.130;13.658;2022-12-13T01:06:32;64038.69;;;-145.85;100.00
76732;BME280;65656;51.130;13.658;2022-12-13T01:09:02;64038.69;;;-145.85;100.00
76732;BME280;65656;51.130;13.658;2022-12-13T01:11:31;64038.69;;;-145.85;100.00
76732;BME280;65656;51.130;13.658;2022-12-13T01:13:58;64038.69;;;-145.85;100.00
76732;BME280;65656;51.130;13.658;2022-12-13T01:16:25;64038.69;;;-145.85;100.00
76732;BME280;65656;51.130;13.658;2022-12-13T01:18:52;64038.69;;;-145.85;100.00
76732;BME280;65656;51.130;13.658;2022-12-13T01:21:19;64038.69;;;-145.85;100.00
76732;BME280;65656;51.130;13.658;2022-12-13T01:23:48;64038.69;;;-145.85;100.00
76732;BME280;65656;51.130;13.658;2022-12-13T01:26:19;64038.69;;;-145.85;100.00
76732;BME280;65656;51.130;13.658;2022-12-13T01:28:48;64038.69;;;-145.85;100.00
76732;BME280;65656;51.130;13.658;2022-12-13T01:31:18;64038.69;;;-145.85;100.00
76732;BME280;65656;51.130;13.658;2022-12-13T01:33:46;64038.69;;;-145.85;100.00
76732;BME280;65656;51.130;13.658;2022-12-13T01:36:16;64038.69;;;-145.85;100.00
76732;BME280;65656;51.130;13.658;2022-12-13T01:38:43;64038.69;;;-145.85;100.00
76732;BME280;65656;51.130;13.658;2022-12-13T01:41:13;64038.69;;;-145.85;100.00
76732;BME280;65656;51.130;13.658;2022-12-13T01:43:56;64038.69;;;-145.85;100.00
76732;BME280;65656;51.130;13.658;2022-12-13T01:46:24;64038.69;;;-145.85;100.00
76732;BME280;65656;51.130;13.658;2022-12-13T01:48:55;64038.69;;;-145.85;100.00
76732;BME280;65656;51.130;13.658;2022-12-13T01:51:27;64038.69;;;-145.85;100.00
76732;BME280;65656;51.130;13.658;2022-12-13T01:53:57;64038.69;;;-145.85;100.00
76732;BME280;65656;51.130;13.658;2022-12-13T01:56:29;64038.69;;;-145.85;100.00
76732;BME280;65656;51.130;13.658;2022-12-13T01:58:59;64038.69;;;-145.85;100.00
76732;BME280;65656;51.130;13.658;2022-12-13T02:01:27;64038.69;;;-145.85;100.00
76732;BME280;65656;51.130;13.658;2022-12-13T02:03:55;64038.69;;;-145.85;100.00
76732;BME280;65656;51.130;13.658;2022-12-13T02:06:27;64038.69;;;-145.85;100.00
76732;BME280;65656;51.130;13.658;2022-12-13T02:08:56;64038.69;;;-145.85;100.00
76732;BME280;65656;51.130;13.658;2022-12-13T02:11:24;64038.69;;;-145.85;100.00
76732;BME280;65656;51.130;13.658;2022-12-13T02:13:52;64038.69;;;-145.85;100.00
76732;BME280;65656;51.130;13.658;2022-12-13T02:16:28;64038.69;;;-145.85;100.00
76732;BME280;65656;51.130;13.658;2022-12-13T02:19:28;64038.69;;;-145.85;100.00
76732;BME280;65656;51.130;13.658;2022-12-13T02:22:13;64038.69;;;-145.85;100.00
76732;BME280;65656;51.130;13.658;2022-12-13T02:24:56;64038.69;;;-145.85;100.00
76732;BME280;65656;51.130;13.658;2022-12-13T02:27:42;64038.69;;;-145.85;100.00
76732;BME280;65656;51.130;13.658;2022-12-13T02:30:20;64038.69;;;-145.85;100.00
76732;BME280;65656;51.130;13.658;2022-12-13T02:33:19;64038.69;;;-145.85;100.00
76732;BME280;65656;51.130;13.658;2022-12-13T02:35:52;64038.69;;;-145.85;100.00
76732;BME280;65656;51.130;13.658;2022-12-13T02:38:28;64038.69;;;-145.85;100.00
76732;BME280;65656;51.130;13.658;2022-12-13T02:41:04;64038.69;;;-145.85;100.00
76732;BME280;65656;51.130;13.658;2022-12-13T02:43:37;64038.69;;;-145.85;100.00
76732;BME280;65656;51.130;13.658;2022-12-13T02:46:14;64038.69;;;-145.85;100.00
76732;BME280;65656;51.130;13.658;2022-12-13T02:48:44;64038.69;;;-145.85;100.00
76732;BME280;65656;51.130;13.658;2022-12-13T02:51:13;64038.69;;;-145.85;100.00
76732;BME280;65656;51.130;13.658;2022-12-13T02:53:42;64038.69;;;-145.85;100.00
76732;BME280;65656;51.130;13.658;2022-12-13T02:56:10;64038.69;;;-145.85;100.00
76732;BME280;65656;51.130;13.658;2022-12-13T02:58:41;64038.69;;;-145.85;100.00
76732;BME280;65656;51.130;13.658;2022-12-13T03:01:23;64038.69;;;-145.85;100.00
76732;BME280;65656;51.130;13.658;2022-12-13T03:04:05;64038.69;;;-145.85;100.00
76732;BME280;65656;51.130;13.658;2022-12-13T03:06:46;64038.69;;;-145.85;100.00
76732;BME280;65656;51.130;13.658;2022-12-13T03:09:25;64038.69;;;-145.85;100.00
76732;BME280;65656;51.130;13.658;2022-12-13T03:12:12;64038.69;;;-145.85;100.00
76732;BME280;65656;51.130;13.658;2022-12-13T03:14:45;64038.69;;;-145.85;100.00
76732;BME280;65656;51.130;13.658;2022-12-13T03:17:17;64038.69;;;-145.85;100.00
76732;BME280;65656;51.130;13.658;2022-12-13T03:19:46;64038.69;;;-145.85;100.00
76732;BME280;65656;51.130;13.658;2022-12-13T03:22:13;64038.69;;;-145.85;100.00
76732;BME280;65656;51.130;13.658;2022-12-13T03:24:40;64038.69;;;-145.85;100.00
76732;BME280;65656;51.130;13.658;2022-12-13T03:27:07;64038.69;;;-145.85;100.00
76732;BME280;65656;51.130;13.658;2022-12-13T03:29:34;64038.69;;;-145.85;100.00
76732;BME280;65656;51.130;13.658;2022-12-13T03:32:01;64038.69;;;-145.85;100.00
76732;BME280;65656;51.130;13.658;2022-12-13T03:34:30;64038.69;;;-145.85;100.00
76732;BME280;65656;51.130;13.658;2022-12-13T03:37:11;64038.69;;;-145.85;100.00
76732;BME280;65656;51.130;13.658;2022-12-13T03:39:38;64038.69;;;-145.85;100.00
76732;BME280;65656;51.130;13.658;2022-12-13T03:42:05;64038.69;;;-145.85;100.00
76732;BME280;65656;51.130;13.658;2022-12-13T03:44:32;64038.69;;;-145.85;100.00
76732;BME280;65656;51.130;13.658;2022-12-13T03:47:00;64038.69;;;-145.85;100.00
76732;BME280;65656;51.130;13.658;2022-12-13T03:49:27;64038.69;;;-145.85;100.00
76732;BME280;65656;51.130;13.658;2022-12-13T03:52:03;64038.69;;;-145.85;100.00
76732;BME280;65656;51.130;13.658;2022-12-13T03:54:30;64038.69;;;-145.85;100.00
76732;BME280;65656;51.130;13.658;2022-12-13T03:56:57;64038.69;;;-145.85;100.00
76732;BME280;65656;51.130;13.658;2022-12-13T03:59:24;64038.69;;;-145.85;100.00
76732;BME280;65656;51.130;13.658;2022-12-13T04:01:51;64038.69;;;-145.85;100.00
76732;BME280;65656;51.130;13.658;2022-12-13T04:04:18;64038.69;;;-145.85;100.00
76732;BME280;65656;51.130;13.658;2022-12-13T04:06:46;64038.69;;;-145.85;100.00
76732;BME280;65656;51.130;13.658;2022-12-13T04:09:14;64038.69;;;-145.85;100.00
76732;BME280;65656;51.130;13.658;2022-12-13T04:11:41;64038.69;;;-145.85;100.00
76732;BME280;65656;51.130;13.658;2022-12-13T04:14:09;64038.69;;;-145.85;100.00
76732;BME280;65656;51.130;13.658;2022-12-13T04:16:37;64038.69;;;-145.85;100.00
76732;BME280;65656;51.130;13.658;2022-12-13T04:19:04;64038.69;;;-145.85;100.00
76732;BME280;65656;51.130;13.658;2022-12-13T04:21:31;64038.69;;;-145.85;100.00
76732;BME280;65656;51.130;13.658;2022-12-13T04:23:58;64038.69;;;-145.85;100.00
76732;BME280;65656;51.130;13.658;2022-12-13T04:26:28;64038.69;;;-145.85;100.00
76732;BME280;65656;51.130;13.658;2022-12-13T04:28:55;64038.69;;;-145.85;100.00
76732;BME280;65656;51.130;13.658;2022-12-13T04:31:22;64038.69;;;-145.85;100.00
76732;BME280;65656;51.130;13.658;2022-12-13T04:33:50;64038.69;;;-145.85;100.00
76732;BME280;65656;51.130;13.658;2022-12-13T04:36:17;64038.69;;;-145.85;100.00
76732;BME280;65656;51.130;13.658;2022-12-13T04:38:59;64038.69;;;-145.85;100.00
76732;BME280;65656;51.130;13.658;2022-12-13T04:41:28;64038.69;;;-145.85;100.00
76732;BME280;65656;51.130;13.658;2022-12-13T04:44:01;64038.69;;;-145.85;100.00
76732;BME280;65656;51.130;13.658;2022-12-13T04:46:28;64038.69;;;-145.85;100.00
76732;BME280;65656;51.130;13.658;2022-12-13T04:48:56;64038.69;;;-145.85;100.00
76732;BME280;65656;51.130;13.658;2022-12-13T04:51:23;64038.69;;;-145.85;100.00
76732;BME280;65656;51.130;13.658;2022-12-13T04:53:50;64038.69;;;-145.85;100.00
76732;BME280;65656;51.130;13.658;2022-12-13T04:56:18;64038.69;;;-145.85;100.00
76732;BME280;65656;51.130;13.658;2022-12-13T04:58:46;64038.69;;;-145.85;100.00
76732;BME280;65656;51.130;13.658;2022-12-13T05:01:14;64038.69;;;-145.85;100.00
76732;BME280;65656;51.130;13.658;2022-12-13T05:03:41;64038.69;;;-145.85;100.00
76732;BME280;65656;51.130;13.658;2022-12-13T05:06:10;64038.69;;;-145.85;100.00
76732;BME280;65656;51.130;13.658;2022-12-13T05:08:54;64038.69;;;-145.85;100.00
76732;BME280;65656;51.130;13.658;2022-12-13T05:11:26;64038.69;;;-145.85;100.00
76732;BME280;65656;51.130;13.658;2022-12-13T05:14:03;64038.69;;;-145.85;100.00
76732;BME280;65656;51.130;13.658;2022-12-13T05:16:30;64038.69;;;-145.85;100.00
76732;BME280;65656;51.130;13.658;2022-12-13T05:18:57;64038.69;;;-145.85;100.00
76732;BME280;65656;51.130;13.658;2022-12-13T05:21:24;64038.69;;;-145.85;100.00
76732;BME280;65656;51.130;13.658;2022-12-13T05:23:51;64038.69;;;-145.85;100.00
76732;BME280;65656;51.130;13.658;2022-12-13T05:26:18;64038.69;;;-145.85;100.00
76732;BME280;65656;51.130;13.658;2022-12-13T05:28:46;64038.69;;;-145.85;100.00
76732;BME280;65656;51.130;13.658;2022-12-13T05:31:14;64038.69;;;-145.85;100.00
76732;BME280;65656;51.130;13.658;2022-12-13T05:33:50;64038.69;;;-145.85;100.00
76732;BME280;65656;51.130;13.658;2022-12-13T05:36:18;64038.69;;;-145.85;100.00
76732;BME280;65656;51.130;13.658;2022-12-13T05:38:45;64038.69;;;-145.85;100.00
76732;BME280;65656;51.130;13.658;2022-12-13T05:41:14;64038.69;;;-145.85;100.00
76732;BME280;65656;51.130;13.658;2022-12-13T05:43:42;64038.69;;;-145.85;100.00
76732;BME280;65656;51.130;13.658;2022-12-13T05:46:10;64038.69;;;-145.85;100.00
76732;BME280;65656;51.130;13.658;2022-12-13T05:48:39;64038.69;;;-145.85;100.00
76732;BME280;65656;51.130;13.658;2022-12-13T05:51:07;64038.69;;;-145.85;100.00
76732;BME280;65656;51.130;13.658;2022-12-13T05:53:38;64038.69;;;-145.85;100.00
76732;BME280;65656;51.130;13.658;2022-12-13T05:56:06;64038.69;;;-145.85;100.00
76732;BME280;65656;51.130;13.658;2022-12-13T05:58:33;64038.69;;;-145.85;100.00
76732;BME280;65656;51.130;13.658;2022-12-13T06:01:06;64038.69;;;-145.85;100.00
76732;BME280;65656;51.130;13.658;2022-12-13T06:03:33;64038.69;;;-145.85;100.00
76732;BME280;65656;51.130;13.658;2022-12-13T06:06:02;64038.69;;;-145.85;100.00
76732;BME280;65656;51.130;13.658;2022-12-13T06:08:29;64038.69;;;-145.85;100.00
76732;BME280;65656;51.130;13.658;2022-12-13T06:10:58;64038.69;;;-145.85;100.00
76732;BME280;65656;51.130;13.658;2022-12-13T06:13:39;64038.69;;;-145.85;100.00
76732;BME280;65656;51.130;13.658;2022-12-13T06:16:11;64038.69;;;-145.85;100.00
76732;BME280;65656;51.130;13.658;2022-12-13T06:18:50;64038.69;;;-145.85;100.00
76732;BME280;65656;51.130;13.658;2022-12-13T06:21:28;64038.69;;;-145.85;100.00
76732;BME280;65656;51.130;13.658;2022-12-13T06:24:06;64038.69;;;-145.85;100.00
76732;BME280;65656;51.130;13.658;2022-12-13T06:26:33;64038.69;;;-145.85;100.00
76732;BME280;65656;51.130;13.658;2022-12-13T06:29:00;64038.69;;;-145.85;100.00
76732;BME280;65656;51.130;13.658;2022-12-13T06:33:16;99045.66;;;-7.28;84.67
76732;BME280;65656;51.130;13.658;2022-12-13T06:35:48;99034.34;;;-7.31;85.02
76732;BME280;65656;51.130;13.658;2022-12-13T06:38:15;99035.03;;;-7.28;83.90
76732;BME280;65656;51.130;13.658;2022-12-13T06:41:05;99038.56;;;-7.38;84.47
76732;BME280;65656;51.130;13.658;2022-12-13T06:43:32;99042.22;;;-7.39;83.15
76732;BME280;65656;51.130;13.658;2022-12-13T06:46:02;99036.28;;;-7.33;83.20
76732;BME280;65656;51.130;13.658;2022-12-13T06:48:30;99038.84;;;-7.41;83.51
76732;BME280;65656;51.130;13.658;2022-12-13T06:50:59;99041.69;;;-7.52;84.50
76732;BME280;65656;51.130;13.658;2022-12-13T06:53:26;99043.97;;;-7.67;85.00
76732;BME280;65656;51.130;13.658;2022-12-13T06:55:52;99048.44;;;-7.67;84.67
76732;BME280;65656;51.130;13.658;2022-12-13T06:58:19;99048.44;;;-7.67;84.26
76732;BME280;65656;51.130;13.658;2022-12-13T07:00:45;99061.63;;;-7.75;84.77
76732;BME280;65656;51.130;13.658;2022-12-13T07:03:14;99054.22;;;-7.81;85.96
76732;BME280;65656;51.130;13.658;2022-12-13T07:05:42;99059.38;;;-7.80;84.89
76732;BME280;65656;51.130;13.658;2022-12-13T07:08:09;99054.34;;;-7.73;86.40
76732;BME280;65656;51.130;13.658;2022-12-13T07:10:37;99059.81;;;-7.84;85.13
76732;BME280;65656;51.130;13.658;2022-12-13T07:13:04;99064.41;;;-7.87;85.28
76732;BME280;65656;51.130;13.658;2022-12-13T07:15:32;99061.06;;;-7.89;86.04
76732;BME280;65656;51.130;13.658;2022-12-13T07:17:58;99069.47;;;-7.83;85.51
76732;BME280;65656;51.130;13.658;2022-12-13T07:20:25;99070.00;;;-7.80;85.41
76732;BME280;65656;51.130;13.658;2022-12-13T07:22:53;99078.97;;;-7.71;85.99
76732;BME280;65656;51.130;13.658;2022-12-13T07:25:24;99067.75;;;-7.65;85.97
76732;BME280;65656;51.130;13.658;2022-12-13T07:27:58;99075.59;;;-7.54;84.90
76732;BME280;65656;51.130;13.658;2022-12-13T07:30:28;99066.31;;;-7.50;85.38
76732;BME280;65656;51.130;13.658;2022-12-13T07:32:55;99065.44;;;-7.41;85.95
76732;BME280;65656;51.130;13.658;2022-12-13T07:35:21;99074.41;;;-7.42;85.18
76732;BME280;65656;51.130;13.658;2022-12-13T07:37:48;64038.69;;;-145.85;100.00
76732;BME280;65656;51.130;13.658;2022-12-13T07:40:15;64038.69;;;-145.85;100.00
76732;BME280;65656;51.130;13.658;2022-12-13T07:42:48;64038.69;;;-145.85;100.00
76732;BME280;65656;51.130;13.658;2022-12-13T07:45:15;64038.69;;;-145.85;100.00
76732;BME280;65656;51.130;13.658;2022-12-13T07:47:41;64038.69;;;-145.85;100.00
76732;BME280;65656;51.130;13.658;2022-12-13T07:50:08;64038.69;;;-145.85;100.00
76732;BME280;65656;51.130;13.658;2022-12-13T07:52:51;64038.69;;;-145.85;100.00
76732;BME280;65656;51.130;13.658;2022-12-13T07:55:19;64038.69;;;-145.85;100.00
76732;BME280;65656;51.130;13.658;2022-12-13T07:58:03;64038.69;;;-145.85;100.00
76732;BME280;65656;51.130;13.658;2022-12-13T08:00:30;64038.69;;;-145.85;100.00
76732;BME280;65656;51.130;13.658;2022-12-13T08:02:59;64038.69;;;-145.85;100.00
76732;BME280;65656;51.130;13.658;2022-12-13T08:05:25;64038.69;;;-145.85;100.00
76732;BME280;65656;51.130;13.658;2022-12-13T08:07:52;64038.69;;;-145.85;100.00
76732;BME280;65656;51.130;13.658;2022-12-13T08:10:21;64038.69;;;-145.85;100.00
76732;BME280;65656;51.130;13.658;2022-12-13T08:12:47;64038.69;;;-145.85;100.00
76732;BME280;65656;51.130;13.658;2022-12-13T08:15:14;64038.69;;;-145.85;100.00
76732;BME280;65656;51.130;13.658;2022-12-13T08:17:40;64038.69;;;-145.85;100.00
76732;BME280;65656;51.130;13.658;2022-12-13T08:20:08;64038.69;;;-145.85;100.00
76732;BME280;65656;51.130;13.658;2022-12-13T08:22:34;64038.69;;;-145.85;100.00
76732;BME280;65656;51.130;13.658;2022-12-13T08:25:02;64038.69;;;-145.85;100.00
76732;BME280;65656;51.130;13.658;2022-12-13T08:27:30;64038.69;;;-145.85;100.00
76732;BME280;65656;51.130;13.658;2022-12-13T08:29:57;64038.69;;;-145.85;100.00
76732;BME280;65656;51.130;13.658;2022-12-13T08:32:24;64038.69;;;-145.85;100.00
76732;BME280;65656;51.130;13.658;2022-12-13T08:34:51;64038.69;;;-145.85;100.00
76732;BME280;65656;51.130;13.658;2022-12-13T08:37:17;64038.69;;;-145.85;100.00
76732;BME280;65656;51.130;13.658;2022-12-13T08:39:44;64038.69;;;-145.85;100.00
76732;BME280;65656;51.130;13.658;2022-12-13T08:42:12;64038.69;;;-145.85;100.00
76732;BME280;65656;51.130;13.658;2022-12-13T08:44:46;64038.69;;;-145.85;100.00
76732;BME280;65656;51.130;13.658;2022-12-13T08:47:13;64038.69;;;-145.85;100.00
76732;BME280;65656;51.130;13.658;2022-12-13T08:49:50;64038.69;;;-145.85;100.00
76732;BME280;65656;51.130;13.658;2022-12-13T08:52:17;64038.69;;;-145.85;100.00
76732;BME280;65656;51.130;13.658;2022-12-13T08:54:44;64038.69;;;-145.85;100.00
76732;BME280;65656;51.130;13.658;2022-12-13T08:57:10;64038.69;;;-145.85;100.00
76732;BME280;65656;51.130;13.658;2022-12-13T08:59:37;64038.69;;;-145.85;100.00
76732;BME280;65656;51.130;13.658;2022-12-13T09:02:05;64038.69;;;-145.85;100.00
76732;BME280;65656;51.130;13.658;2022-12-13T09:04:31;64038.69;;;-145.85;100.00
76732;BME280;65656;51.130;13.658;2022-12-13T09:06:58;64038.69;;;-145.85;100.00
76732;BME280;65656;51.130;13.658;2022-12-13T09:09:27;64038.69;;;-145.85;100.00
76732;BME280;65656;51.130;13.658;2022-12-13T09:11:54;64038.69;;;-145.85;100.00
76732;BME280;65656;51.130;13.658;2022-12-13T09:14:25;64038.69;;;-145.85;100.00
76732;BME280;65656;51.130;13.658;2022-12-13T09:16:59;64038.69;;;-145.85;100.00
76732;BME280;65656;51.130;13.658;2022-12-13T09:19:30;64038.69;;;-145.85;100.00
76732;BME280;65656;51.130;13.658;2022-12-13T09:22:03;64038.69;;;-145.85;100.00
76732;BME280;65656;51.130;13.658;2022-12-13T09:24:30;64038.69;;;-145.85;100.00
76732;BME280;65656;51.130;13.658;2022-12-13T09:27:02;64038.69;;;-145.85;100.00
76732;BME280;65656;51.130;13.658;2022-12-13T09:29:35;64038.69;;;-145.85;100.00
76732;BME280;65656;51.130;13.658;2022-12-13T09:32:02;64038.69;;;-145.85;100.00
76732;BME280;65656;51.130;13.658;2022-12-13T09:34:30;64038.69;;;-145.85;100.00
76732;BME280;65656;51.130;13.658;2022-12-13T09:36:57;64038.69;;;-145.85;100.00
76732;BME280;65656;51.130;13.658;2022-12-13T09:39:27;64038.69;;;-145.85;100.00
76732;BME280;65656;51.130;13.658;2022-12-13T09:41:56;64038.69;;;-145.85;100.00
76732;BME280;65656;51.130;13.658;2022-12-13T09:44:28;64038.69;;;-145.85;100.00
76732;BME280;65656;51.130;13.658;2022-12-13T09:47:24;64038.69;;;-145.85;100.00
76732;BME280;65656;51.130;13.658;2022-12-13T09:50:05;64038.69;;;-145.85;100.00
76732;BME280;65656;51.130;13.658;2022-12-13T09:52:41;64038.69;;;-145.85;100.00
76732;BME280;65656;51.130;13.658;2022-12-13T09:55:20;64038.69;;;-145.85;100.00
76732;BME280;65656;51.130;13.658;2022-12-13T09:57:48;64038.69;;;-145.85;100.00
76732;BME280;65656;51.130;13.658;2022-12-13T10:00:18;64038.69;;;-145.85;100.00
76732;BME280;65656;51.130;13.658;2022-12-13T10:02:46;64038.69;;;-145.85;100.00
76732;BME280;65656;51.130;13.658;2022-12-13T10:05:18;64038.69;;;-145.85;100.00
76732;BME280;65656;51.130;13.658;2022-12-13T10:07:50;64038.69;;;-145.85;100.00
76732;BME280;65656;51.130;13.658;2022-12-13T10:10:18;64038.69;;;-145.85;100.00
76732;BME280;65656;51.130;13.658;2022-12-13T10:12:49;64038.69;;;-145.85;100.00
76732;BME280;65656;51.130;13.658;2022-12-13T10:15:19;64038.69;;;-145.85;100.00
76732;BME280;65656;51.130;13.658;2022-12-13T10:17:48;64038.69;;;-145.85;100.00
76732;BME280;65656;51.130;13.658;2022-12-13T10:20:24;64038.69;;;-145.85;100.00
76732;BME280;65656;51.130;13.658;2022-12-13T10:22:51;64038.69;;;-145.85;100.00
76732;BME280;65656;51.130;13.658;2022-12-13T10:25:45;64038.69;;;-145.85;100.00
76732;BME280;65656;51.130;13.658;2022-12-13T10:28:17;64038.69;;;-145.85;100.00
76732;BME280;65656;51.130;13.658;2022-12-13T10:30:49;64038.69;;;-145.85;100.00
76732;BME280;65656;51.130;13.658;2022-12-13T10:33:22;64038.69;;;-145.85;100.00
76732;BME280;65656;51.130;13.658;2022-12-13T10:36:06;64038.69;;;-145.85;100.00
76732;BME280;65656;51.130;13.658;2022-12-13T10:38:35;64038.69;;;-145.85;100.00
76732;BME280;65656;51.130;13.658;2022-12-13T10:44:06;64038.69;;;-145.85;100.00
76732;BME280;65656;51.130;13.658;2022-12-13T10:46:33;64038.69;;;-145.85;100.00
76732;BME280;65656;51.130;13.658;2022-12-13T10:49:14;64038.69;;;-145.85;100.00
76732;BME280;65656;51.130;13.658;2022-12-13T10:51:44;64038.69;;;-145.85;100.00
76732;BME280;65656;51.130;13.658;2022-12-13T10:54:13;64038.69;;;-145.85;100.00
76732;BME280;65656;51.130;13.658;2022-12-13T10:56:44;64038.69;;;-145.85;100.00
76732;BME280;65656;51.130;13.658;2022-12-13T10:59:26;64038.69;;;-145.85;100.00
76732;BME280;65656;51.130;13.658;2022-12-13T11:01:53;64038.69;;;-145.85;100.00
76732;BME280;65656;51.130;13.658;2022-12-13T11:04:22;64038.69;;;-145.85;100.00
76732;BME280;65656;51.130;13.658;2022-12-13T11:06:56;64038.69;;;-145.85;100.00
76732;BME280;65656;51.130;13.658;2022-12-13T11:09:25;64038.69;;;-145.85;100.00
76732;BME280;65656;51.130;13.658;2022-12-13T11:11:54;64038.69;;;-145.85;100.00
76732;BME280;65656;51.130;13.658;2022-12-13T11:14:27;64038.69;;;-145.85;100.00
76732;BME280;65656;51.130;13.658;2022-12-13T11:17:04;64038.69;;;-145.85;100.00
76732;BME280;65656;51.130;13.658;2022-12-13T11:19:36;64038.69;;;-145.85;100.00
76732;BME280;65656;51.130;13.658;2022-12-13T11:22:04;64038.69;;;-145.85;100.00
76732;BME280;65656;51.130;13.658;2022-12-13T11:24:33;64038.69;;;-145.85;100.00
76732;BME280;65656;51.130;13.658;2022-12-13T11:27:08;64038.69;;;-145.85;100.00
76732;BME280;65656;51.130;13.658;2022-12-13T11:29:56;64038.69;;;-145.85;100.00
76732;BME280;65656;51.130;13.658;2022-12-13T11:32:34;64038.69;;;-145.85;100.00
76732;BME280;65656;51.130;13.658;2022-12-13T11:35:08;64038.69;;;-145.85;100.00
76732;BME280;65656;51.130;13.658;2022-12-13T11:37:44;64038.69;;;-145.85;100.00
76732;BME280;65656;51.130;13.658;2022-12-13T11:40:20;64038.69;;;-145.85;100.00
76732;BME280;65656;51.130;13.658;2022-12-13T11:42:51;64038.69;;;-145.85;100.00
76732;BME280;65656;51.130;13.658;2022-12-13T11:45:23;64038.69;;;-145.85;100.00
76732;BME280;65656;51.130;13.658;2022-12-13T11:48:00;64038.69;;;-145.85;100.00
76732;BME280;65656;51.130;13.658;2022-12-13T11:50:30;64038.69;;;-145.85;100.00
76732;BME280;65656;51.130;13.658;2022-12-13T11:53:15;64038.69;;;-145.85;100.00
76732;BME280;65656;51.130;13.658;2022-12-13T11:55:48;64038.69;;;-145.85;100.00
76732;BME280;65656;51.130;13.658;2022-12-13T11:58:20;64038.69;;;-145.85;100.00
76732;BME280;65656;51.130;13.658;2022-12-13T12:01:11;64038.69;;;-145.85;100.00
76732;BME280;65656;51.130;13.658;2022-12-13T12:03:42;64038.69;;;-145.85;100.00
76732;BME280;65656;51.130;13.658;2022-12-13T12:06:15;64038.69;;;-145.85;100.00
76732;BME280;65656;51.130;13.658;2022-12-13T12:08:47;64038.69;;;-145.85;100.00
76732;BME280;65656;51.130;13.658;2022-12-13T12:11:22;64038.69;;;-145.85;100.00
76732;BME280;65656;51.130;13.658;2022-12-13T12:13:53;64038.69;;;-145.85;100.00
76732;BME280;65656;51.130;13.658;2022-12-13T12:16:29;64038.69;;;-145.85;100.00
76732;BME280;65656;51.130;13.658;2022-12-13T12:18:59;64038.69;;;-145.85;100.00
76732;BME280;65656;51.130;13.658;2022-12-13T12:21:34;64038.69;;;-145.85;100.00
76732;BME280;65656;51.130;13.658;2022-12-13T12:24:30;64038.69;;;-145.85;100.00
76732;BME280;65656;51.130;13.658;2022-12-13T12:27:12;64038.69;;;-145.85;100.00
76732;BME280;65656;51.130;13.658;2022-12-13T12:30:06;64038.69;;;-145.85;100.00
76732;BME280;65656;51.130;13.658;2022-12-13T12:32:41;64038.69;;;-145.85;100.00
76732;BME280;65656;51.130;13.658;2022-12-13T12:35:38;64038.69;;;-145.85;100.00
76732;BME280;65656;51.130;13.658;2022-12-13T12:38:25;64038.69;;;-145.85;100.00
76732;BME280;65656;51.130;13.658;2022-12-13T12:41:12;64038.69;;;-145.85;100.00
76732;BME280;65656;51.130;13.658;2022-12-13T12:43:44;64038.69;;;-145.85;100.00
76732;BME280;65656;51.130;13.658;2022-12-13T12:46:26;64038.69;;;-145.85;100.00
76732;BME280;65656;51.130;13.658;2022-12-13T12:49:08;64038.69;;;-145.85;100.00